Time;durP1;ratioP1;P1;durP2;ratioP2;P2;SDS_P1;SDS_P2;PMS_P1;PMS_P2;Temp;Humidity;BMP_temperature;BMP_pressure;BME280_temperature;BME280_humidity;BME280_pressure;Samples;Min_cycle;Max_cycle;Signal;HPM_P1;HPM_P2
2022/02/26 00:00:09;;;;;;;;;;;;;;;16.67;43.90;101111.75;5109386;28;897;-60
2022/02/26 00:02:35;;;;;;;;;;;;;;;16.76;44.20;101118.41;5077074;28;1910;-60
2022/02/26 00:05:00;;;;;;;;;;;;;;;16.77;44.39;101111.84;5076842;28;832;-60
2022/02/26 00:07:26;;;;;;;;;;;;;;;16.88;44.46;101117.38;5076751;28;815;-60
2022/02/26 00:09:51;;;;;;;;;;;;;;;16.97;44.52;101103.97;5076916;28;796;-59
2022/02/26 00:12:17;;;;;;;;;;;;;;;16.95;44.46;101095.19;5077409;28;927;-60
2022/02/26 00:14:42;;;;;;;;;;;;;;;16.67;44.39;101094.47;5076427;28;1048;-60
2022/02/26 00:17:08;;;;;;;;;;;;;;;16.60;43.79;101090.03;5075397;28;847;-60
2022/02/26 00:19:34;;;;;;;;;;;;;;;16.42;43.23;101088.56;5076848;28;750;-60
2022/02/26 00:21:59;;;;;;;;;;;;;;;16.98;44.68;101094.66;5076795;28;797;-60
2022/02/26 00:24:25;;;;;;;;;;;;;;;17.33;43.63;101101.38;5076115;28;1909;-60
2022/02/26 00:26:50;;;;;;;;;;;;;;;16.91;43.91;101112.22;5076270;28;739;-60
2022/02/26 00:29:16;;;;;;;;;;;;;;;16.70;43.75;101093.94;5076573;28;868;-60
2022/02/26 00:31:42;;;;;;;;;;;;;;;16.34;42.58;101102.78;5076532;28;811;-60
2022/02/26 00:34:07;;;;;;;;;;;;;;;16.64;44.26;101095.81;5076387;28;850;-60
2022/02/26 00:36:33;;;;;;;;;;;;;;;16.63;44.54;101093.34;5076403;28;773;-60
2022/02/26 00:38:58;;;;;;;;;;;;;;;16.60;44.07;101105.69;5076487;28;801;-59
2022/02/26 00:41:26;;;;;;;;;;;;;;;16.65;43.96;101107.63;5076519;28;797;-60
2022/02/26 00:43:51;;;;;;;;;;;;;;;16.57;44.07;101111.72;5076339;28;1911;-60
2022/02/26 00:46:17;;;;;;;;;;;;;;;16.56;44.45;101099.06;5069217;28;859;-59
2022/02/26 00:51:28;;;;;;;;;;;;;;;16.76;44.35;101110.19;5060921;28;1144;-60
2022/02/26 00:53:53;;;;;;;;;;;;;;;16.90;44.69;101115.19;5076178;28;772;-60
2022/02/26 00:56:19;;;;;;;;;;;;;;;17.09;44.52;101108.16;5076737;28;746;-60
2022/02/26 00:58:44;;;;;;;;;;;;;;;17.13;44.09;101115.88;5076590;28;1064;-60
2022/02/26 01:01:10;;;;;;;;;;;;;;;17.09;44.35;101124.63;5075654;28;929;-60
2022/02/26 01:03:35;;;;;;;;;;;;;;;16.84;44.49;101121.75;5076346;28;1910;-60
2022/02/26 01:06:01;;;;;;;;;;;;;;;16.78;43.78;101118.16;5076267;28;872;-60
2022/02/26 01:08:26;;;;;;;;;;;;;;;16.45;43.53;101114.63;5075888;28;865;-59
2022/02/26 01:10:52;;;;;;;;;;;;;;;16.60;44.54;101122.16;5076159;28;873;-60
2022/02/26 01:13:17;;;;;;;;;;;;;;;17.02;44.67;101124.06;5075565;28;1001;-60
2022/02/26 01:15:43;;;;;;;;;;;;;;;17.07;44.32;101118.59;5075173;28;855;-60
2022/02/26 01:18:08;;;;;;;;;;;;;;;16.70;44.57;101116.72;5076205;28;838;-60
2022/02/26 01:20:34;;;;;;;;;;;;;;;16.63;43.88;101110.63;5076350;28;763;-60
2022/02/26 01:22:59;;;;;;;;;;;;;;;16.44;42.46;101118.50;5076016;28;1906;-60
2022/02/26 01:25:25;;;;;;;;;;;;;;;16.67;45.23;101116.44;5075810;28;807;-60
2022/02/26 01:27:50;;;;;;;;;;;;;;;17.12;44.35;101122.47;5075723;28;785;-60
2022/02/26 01:30:15;;;;;;;;;;;;;;;16.92;44.33;101118.53;5075729;28;880;-60
2022/02/26 01:32:41;;;;;;;;;;;;;;;16.67;44.49;101122.75;5075930;28;852;-60
2022/02/26 01:35:07;;;;;;;;;;;;;;;16.60;43.97;101116.66;5075595;28;872;-59
2022/02/26 01:37:32;;;;;;;;;;;;;;;16.58;43.91;101107.88;5077289;28;1072;-60
2022/02/26 01:39:57;;;;;;;;;;;;;;;16.63;44.03;101115.31;5080136;28;836;-59
2022/02/26 01:42:23;;;;;;;;;;;;;;;16.58;44.08;101114.19;5079617;28;1906;-60
2022/02/26 01:44:49;;;;;;;;;;;;;;;16.52;44.40;101114.41;5079518;28;797;-60
2022/02/26 01:47:14;;;;;;;;;;;;;;;16.69;44.55;101109.59;5079560;28;958;-59
2022/02/26 01:49:40;;;;;;;;;;;;;;;16.70;44.73;101111.22;5079787;28;758;-59
2022/02/26 01:52:06;;;;;;;;;;;;;;;16.85;44.66;101120.66;5079205;28;1082;-59
2022/02/26 01:54:31;;;;;;;;;;;;;;;17.03;44.29;101114.72;5079862;28;824;-59
2022/02/26 01:56:57;;;;;;;;;;;;;;;17.22;43.73;101109.59;5079622;28;1546;-60
2022/02/26 01:59:22;;;;;;;;;;;;;;;17.26;43.67;101118.94;5079171;28;790;-60
2022/02/26 02:01:48;;;;;;;;;;;;;;;17.10;43.79;101120.78;5079069;28;918;-60
2022/02/26 02:04:14;;;;;;;;;;;;;;;16.86;44.09;101114.91;5078721;28;1909;-60
2022/02/26 02:06:40;;;;;;;;;;;;;;;16.76;43.71;101121.16;5078894;28;893;-60
2022/02/26 02:09:06;;;;;;;;;;;;;;;16.75;43.89;101124.19;5079931;28;732;-60
2022/02/26 02:11:33;;;;;;;;;;;;;;;16.72;44.30;101122.78;5079292;28;765;-60
2022/02/26 02:13:58;;;;;;;;;;;;;;;16.77;44.53;101128.31;5111531;28;993;-60
2022/02/26 02:16:24;;;;;;;;;;;;;;;16.81;44.33;101125.03;5078393;28;839;-60
2022/02/26 02:18:49;;;;;;;;;;;;;;;16.86;44.48;101130.56;5078685;28;858;-60
2022/02/26 02:21:15;;;;;;;;;;;;;;;16.84;44.47;101127.25;5079090;28;800;-60
2022/02/26 02:23:44;;;;;;;;;;;;;;;16.85;44.42;101129.72;5079058;28;1910;-60
2022/02/26 02:26:09;;;;;;;;;;;;;;;16.67;43.98;101117.25;5079296;28;714;-60
2022/02/26 02:28:34;;;;;;;;;;;;;;;16.65;43.85;101127.69;5078633;28;994;-60
2022/02/26 02:31:00;;;;;;;;;;;;;;;16.55;43.99;101125.72;5078144;28;821;-60
2022/02/26 02:33:26;;;;;;;;;;;;;;;16.56;43.57;101132.00;5078922;28;840;-60
2022/02/26 02:35:51;;;;;;;;;;;;;;;16.57;43.85;101130.94;5078486;28;824;-60
2022/02/26 02:38:17;;;;;;;;;;;;;;;16.71;44.26;101125.81;5078888;28;758;-60
2022/02/26 02:40:43;;;;;;;;;;;;;;;16.67;45.10;101133.72;5078971;28;813;-60
2022/02/26 02:43:09;;;;;;;;;;;;;;;17.06;44.38;101133.41;5078034;28;1910;-60
2022/02/26 02:45:35;;;;;;;;;;;;;;;17.33;43.80;101135.16;5078210;28;833;-60
2022/02/26 02:48:01;;;;;;;;;;;;;;;17.37;43.44;101143.72;5078197;28;778;-60
2022/02/26 02:50:26;;;;;;;;;;;;;;;17.17;43.65;101141.72;5078807;28;811;-60
2022/02/26 02:52:51;;;;;;;;;;;;;;;16.75;43.89;101140.66;5078492;28;829;-60
2022/02/26 02:55:20;;;;;;;;;;;;;;;16.83;44.04;101142.91;5110854;28;996;-60
2022/02/26 02:57:45;;;;;;;;;;;;;;;17.84;42.71;101147.38;5072069;28;822;-60
2022/02/26 03:00:11;;;;;;;;;;;;;;;18.27;41.48;101153.47;5078447;28;827;-60
2022/02/26 03:02:37;;;;;;;;;;;;;;;18.26;41.59;101158.19;5078579;28;1905;-60
2022/02/26 03:05:02;;;;;;;;;;;;;;;17.96;41.93;101153.47;5110152;28;1077;-60
2022/02/26 03:07:28;;;;;;;;;;;;;;;17.52;42.86;101157.50;5078232;28;813;-60
2022/02/26 03:09:53;;;;;;;;;;;;;;;17.36;42.88;101161.28;5078176;28;734;-60
2022/02/26 03:12:19;;;;;;;;;;;;;;;17.18;42.93;101148.84;5078372;28;800;-59
2022/02/26 03:14:44;;;;;;;;;;;;;;;17.04;42.70;101145.75;5078089;28;1174;-61
2022/02/26 03:17:10;;;;;;;;;;;;;;;16.68;42.03;101149.13;5077699;28;838;-61
2022/02/26 03:19:36;;;;;;;;;;;;;;;16.71;42.54;101145.03;5077971;28;822;-61
2022/02/26 03:22:01;;;;;;;;;;;;;;;16.90;43.90;101148.16;5077767;28;813;-61
2022/02/26 03:24:27;;;;;;;;;;;;;;;16.99;44.09;101143.81;5078049;28;1906;-61
2022/02/26 03:26:56;;;;;;;;;;;;;;;17.03;44.37;101149.63;5078100;28;752;-61
2022/02/26 03:29:25;;;;;;;;;;;;;;;16.98;44.57;101146.84;5078185;28;773;-61
2022/02/26 03:31:52;;;;;;;;;;;;;;;17.02;44.13;101154.28;5077818;28;831;-61
2022/02/26 03:34:19;;;;;;;;;;;;;;;16.75;44.09;101152.44;5077127;28;770;-61
2022/02/26 03:36:45;;;;;;;;;;;;;;;16.74;43.15;101150.78;5109915;28;845;-60
2022/02/26 03:39:11;;;;;;;;;;;;;;;16.55;42.52;101158.66;5077965;28;919;-61
2022/02/26 03:41:36;;;;;;;;;;;;;;;16.47;42.91;101150.91;5077204;28;926;-61
2022/02/26 03:44:02;;;;;;;;;;;;;;;16.58;43.34;101146.31;5077133;28;1960;-61
2022/02/26 03:46:28;;;;;;;;;;;;;;;16.70;44.12;101157.91;5077088;28;836;-61
2022/02/26 03:48:53;;;;;;;;;;;;;;;16.82;44.38;101162.41;5077563;28;793;-60
2022/02/26 03:51:18;;;;;;;;;;;;;;;16.96;44.73;101166.34;5077141;28;817;-60
2022/02/26 03:53:44;;;;;;;;;;;;;;;17.04;44.51;101165.84;5077237;28;873;-60
2022/02/26 03:56:09;;;;;;;;;;;;;;;17.00;44.33;101167.47;5077094;28;834;-60
2022/02/26 03:58:36;;;;;;;;;;;;;;;16.69;44.30;101167.25;5077452;28;832;-60
2022/02/26 04:01:02;;;;;;;;;;;;;;;16.69;43.56;101171.91;5076132;28;895;-60
2022/02/26 04:03:27;;;;;;;;;;;;;;;16.58;43.85;101173.78;5077531;28;1909;-59
2022/02/26 04:05:53;;;;;;;;;;;;;;;16.65;44.15;101163.38;5077307;28;781;-60
2022/02/26 04:08:18;;;;;;;;;;;;;;;16.81;44.97;101163.47;5076869;28;766;-59
2022/02/26 04:10:44;;;;;;;;;;;;;;;17.10;44.34;101164.75;5109466;28;947;-59
2022/02/26 04:13:09;;;;;;;;;;;;;;;17.27;43.73;101171.97;5075817;28;1005;-60
2022/02/26 04:15:35;;;;;;;;;;;;;;;17.30;43.82;101174.19;5076255;28;952;-60
2022/02/26 04:18:00;;;;;;;;;;;;;;;17.34;43.58;101180.81;5077146;28;818;-57
2022/02/26 04:20:26;;;;;;;;;;;;;;;16.94;44.15;101182.25;5076380;28;929;-57
2022/02/26 04:22:51;;;;;;;;;;;;;;;16.78;43.64;101186.81;5076584;28;1905;-58
2022/02/26 04:25:17;;;;;;;;;;;;;;;16.70;43.32;101190.84;5076480;28;904;-58
2022/02/26 04:27:43;;;;;;;;;;;;;;;16.56;43.31;101187.78;5076317;28;722;-57
2022/02/26 04:30:08;;;;;;;;;;;;;;;16.65;43.59;101190.84;5075961;28;968;-58
2022/02/26 04:32:34;;;;;;;;;;;;;;;16.70;43.99;101185.38;5076899;28;797;-58
2022/02/26 04:35:00;;;;;;;;;;;;;;;16.77;44.53;101188.72;5076051;28;821;-58
2022/02/26 04:37:25;;;;;;;;;;;;;;;16.92;44.66;101189.94;5076371;28;982;-58
2022/02/26 04:39:51;;;;;;;;;;;;;;;17.16;43.98;101184.03;5076879;28;778;-58
2022/02/26 04:42:17;;;;;;;;;;;;;;;17.28;43.91;101193.69;5076250;28;822;-58
2022/02/26 04:44:44;;;;;;;;;;;;;;;17.00;44.07;101200.44;5076805;28;1887;-58
2022/02/26 04:47:10;;;;;;;;;;;;;;;16.82;44.05;101195.34;5075224;28;987;-58
2022/02/26 04:49:36;;;;;;;;;;;;;;;16.83;43.39;101191.50;5075664;28;872;-59
2022/02/26 04:52:01;;;;;;;;;;;;;;;16.70;43.13;101201.03;5076203;28;888;-59
2022/02/26 04:54:27;;;;;;;;;;;;;;;16.57;42.80;101205.06;5076818;28;822;-60
2022/02/26 04:56:52;;;;;;;;;;;;;;;16.55;43.48;101190.75;5075678;28;1007;-59
2022/02/26 04:59:18;;;;;;;;;;;;;;;16.58;44.41;101212.22;5076468;28;753;-60
2022/02/26 05:01:43;;;;;;;;;;;;;;;16.71;44.58;101210.94;5076041;28;822;-60
2022/02/26 05:04:09;;;;;;;;;;;;;;;17.18;44.36;101220.28;5075338;28;1976;-60
2022/02/26 05:06:35;;;;;;;;;;;;;;;17.52;43.21;101217.16;5076064;28;841;-60
2022/02/26 05:09:00;;;;;;;;;;;;;;;17.67;42.70;101219.97;5108569;28;1603;-60
2022/02/26 05:11:25;;;;;;;;;;;;;;;17.45;43.16;101220.97;5069550;28;1625;-60
2022/02/26 05:13:51;;;;;;;;;;;;;;;17.05;43.64;101225.16;5075681;28;1005;-61
2022/02/26 05:16:16;;;;;;;;;;;;;;;16.80;43.56;101228.53;5075051;28;1332;-61
2022/02/26 05:18:42;;;;;;;;;;;;;;;16.75;43.61;101229.34;5075902;28;805;-61
2022/02/26 05:21:07;;;;;;;;;;;;;;;16.58;42.57;101231.44;5076559;28;781;-61
2022/02/26 05:23:33;;;;;;;;;;;;;;;16.90;44.64;101236.06;5075169;28;1976;-61
2022/02/26 05:25:58;;;;;;;;;;;;;;;17.00;44.19;101238.03;5076017;28;761;-61
2022/02/26 05:28:24;;;;;;;;;;;;;;;16.98;44.35;101246.56;5075511;28;801;-61
2022/02/26 05:30:49;;;;;;;;;;;;;;;16.75;44.13;101250.50;5075624;28;883;-61
2022/02/26 05:33:14;;;;;;;;;;;;;;;16.67;44.01;101259.22;5076086;28;769;-61
2022/02/26 05:35:40;;;;;;;;;;;;;;;16.69;43.65;101257.03;5076175;28;825;-58
2022/02/26 05:38:05;;;;;;;;;;;;;;;16.70;43.27;101278.72;5076199;28;1030;-61
2022/02/26 05:40:31;;;;;;;;;;;;;;;16.57;43.55;101276.44;5075697;28;800;-61
2022/02/26 05:42:56;;;;;;;;;;;;;;;16.79;44.40;101278.25;5075271;28;1975;-61
2022/02/26 05:45:22;;;;;;;;;;;;;;;17.18;44.19;101286.25;5075804;28;845;-61
2022/02/26 05:47:47;;;;;;;;;;;;;;;17.68;42.69;101284.03;5075661;28;899;-61
2022/02/26 05:50:13;;;;;;;;;;;;;;;17.94;42.04;101291.31;5075884;28;818;-61
2022/02/26 05:52:38;;;;;;;;;;;;;;;17.95;41.92;101297.66;5075443;28;829;-61
2022/02/26 05:55:04;;;;;;;;;;;;;;;17.50;42.81;101299.09;5074956;28;845;-61
2022/02/26 05:57:30;;;;;;;;;;;;;;;17.13;43.16;101302.72;5075725;28;754;-61
2022/02/26 05:59:55;;;;;;;;;;;;;;;17.00;43.09;101315.81;5075879;28;821;-61
2022/02/26 06:02:20;;;;;;;;;;;;;;;16.70;41.95;101316.34;5075296;28;1001;-61
2022/02/26 06:04:46;;;;;;;;;;;;;;;16.53;42.10;101319.22;5075640;28;1906;-61
2022/02/26 06:07:12;;;;;;;;;;;;;;;16.84;44.03;101320.31;5075438;28;809;-61
2022/02/26 06:09:37;;;;;;;;;;;;;;;17.27;43.88;101320.41;5075748;28;773;-61
2022/02/26 06:12:03;;;;;;;;;;;;;;;17.77;42.66;101321.78;5075149;28;833;-63
2022/02/26 06:14:28;;;;;;;;;;;;;;;17.97;42.19;101320.22;5075488;28;991;-62
2022/02/26 06:16:54;;;;;;;;;;;;;;;17.86;42.04;101313.00;5075747;28;843;-61
2022/02/26 06:19:19;;;;;;;;;;;;;;;17.29;43.02;101320.94;5074766;28;778;-60
2022/02/26 06:21:47;;;;;;;;;;;;;;;17.16;42.46;101318.69;5076048;28;740;-61
2022/02/26 06:24:13;;;;;;;;;;;;;;;16.96;42.62;101320.19;5077432;28;1902;-61
2022/02/26 06:26:39;;;;;;;;;;;;;;;16.60;41.69;101325.34;5078321;28;785;-61
2022/02/26 06:29:04;;;;;;;;;;;;;;;16.88;44.40;101326.13;5078819;28;822;-62
2022/02/26 06:31:30;;;;;;;;;;;;;;;17.36;43.46;101321.56;5078919;28;820;-61
2022/02/26 06:33:55;;;;;;;;;;;;;;;17.04;43.97;101325.19;5078770;28;961;-61
2022/02/26 06:36:21;;;;;;;;;;;;;;;16.83;43.75;101326.91;5079392;28;846;-62
2022/02/26 06:38:46;;;;;;;;;;;;;;;16.60;42.23;101319.84;5079010;28;886;-61
2022/02/26 06:41:11;;;;;;;;;;;;;;;16.64;43.78;101331.97;5078319;28;785;-62
2022/02/26 06:43:37;;;;;;;;;;;;;;;17.31;43.66;101328.97;5078816;28;1906;-61
2022/02/26 06:46:04;;;;;;;;;;;;;;;17.04;43.97;101332.59;5078130;28;800;-61
2022/02/26 06:48:30;;;;;;;;;;;;;;;16.76;44.31;101342.78;5078540;28;807;-61
2022/02/26 06:50:55;;;;;;;;;;;;;;;16.62;43.57;101339.66;5078624;28;906;-63
2022/02/26 06:53:21;;;;;;;;;;;;;;;17.82;42.20;101344.91;5078678;28;831;-61
2022/02/26 06:55:46;;;;;;;;;;;;;;;17.49;43.10;101352.41;5078215;28;737;-61
2022/02/26 06:58:12;;;;;;;;;;;;;;;17.12;43.58;101350.53;5078517;28;817;-59
2022/02/26 07:00:37;;;;;;;;;;;;;;;16.92;42.56;101352.84;5078519;28;778;-60
2022/02/26 07:03:03;;;;;;;;;;;;;;;16.64;42.58;101364.91;5078076;28;1898;-59
2022/02/26 07:05:28;;;;;;;;;;;;;;;16.95;44.57;101373.47;5078665;28;877;-60
2022/02/26 07:07:53;;;;;;;;;;;;;;;17.90;42.23;101371.91;5078065;28;991;-60
2022/02/26 07:10:19;;;;;;;;;;;;;;;18.60;40.36;101371.59;5077656;28;872;-62
2022/02/26 07:12:44;;;;;;;;;;;;;;;17.75;42.31;101373.50;5077947;28;998;-63
2022/02/26 07:15:11;;;;;;;;;;;;;;;17.36;42.89;101364.69;5077938;28;1008;-62
2022/02/26 07:17:37;;;;;;;;;;;;;;;17.12;41.93;101361.50;5077722;28;777;-62
2022/02/26 07:20:03;;;;;;;;;;;;;;;16.69;41.83;101369.63;5077587;28;1606;-62
2022/02/26 07:22:29;;;;;;;;;;;;;;;17.03;44.55;101351.00;5077550;28;856;-63
2022/02/26 07:24:54;;;;;;;;;;;;;;;18.10;41.94;101358.25;5076774;28;1898;-64
2022/02/26 07:27:20;;;;;;;;;;;;;;;18.40;40.87;101366.88;5077411;28;786;-63
2022/02/26 07:29:45;;;;;;;;;;;;;;;17.68;42.22;101370.13;5077800;28;881;-63
2022/02/26 07:32:11;;;;;;;;;;;;;;;17.33;42.78;101368.81;5077102;28;925;-64
2022/02/26 07:34:36;;;;;;;;;;;;;;;17.22;42.07;101369.81;5077101;28;951;-64
2022/02/26 07:37:02;;;;;;;;;;;;;;;16.86;42.05;101370.34;5077311;28;781;-63
2022/02/26 07:39:27;;;;;;;;;;;;;;;17.26;43.93;101377.31;5077367;28;845;-63
2022/02/26 07:41:52;;;;;;;;;;;;;;;17.24;43.69;101370.41;5077488;28;768;-63
2022/02/26 07:44:18;;;;;;;;;;;;;;;17.07;43.58;101379.63;5077547;28;1984;-63
2022/02/26 07:46:43;;;;;;;;;;;;;;;16.79;42.11;101385.38;5108706;28;1081;-63
2022/02/26 07:49:09;;;;;;;;;;;;;;;16.67;41.99;101393.78;5076641;28;905;-62
2022/02/26 07:51:34;;;;;;;;;;;;;;;17.35;43.79;101385.03;5076894;28;821;-62
2022/02/26 07:54:00;;;;;;;;;;;;;;;18.34;41.34;101390.81;5076895;28;800;-64
2022/02/26 07:56:25;;;;;;;;;;;;;;;18.40;40.96;101392.47;5076806;28;833;-63
2022/02/26 07:58:51;;;;;;;;;;;;;;;17.90;41.96;101391.16;5077068;28;904;-62
2022/02/26 08:01:17;;;;;;;;;;;;;;;17.53;42.78;101401.13;5075850;28;847;-62
2022/02/26 08:03:43;;;;;;;;;;;;;;;17.38;42.38;101395.53;5077339;28;1906;-62
2022/02/26 08:06:08;;;;;;;;;;;;;;;16.89;41.61;101407.47;5076771;28;800;-62
2022/02/26 08:08:34;;;;;;;;;;;;;;;16.97;41.25;101400.66;5076585;28;868;-62
2022/02/26 08:10:59;;;;;;;;;;;;;;;17.40;44.02;101402.41;5076473;28;833;-59
2022/02/26 08:13:25;;;;;;;;;;;;;;;18.07;41.82;101405.56;5076815;28;1369;-62
2022/02/26 08:15:50;;;;;;;;;;;;;;;18.19;41.48;101408.09;5075972;28;971;-62
2022/02/26 08:18:16;;;;;;;;;;;;;;;17.97;42.05;101412.97;5076530;28;826;-62
2022/02/26 08:20:41;;;;;;;;;;;;;;;17.42;42.94;101413.97;5076821;28;868;-62
2022/02/26 08:23:07;;;;;;;;;;;;;;;17.27;42.13;101419.34;5076103;28;1898;-62
2022/02/26 08:25:32;;;;;;;;;;;;;;;16.87;41.33;101415.09;5076296;28;873;-62
2022/02/26 08:27:58;;;;;;;;;;;;;;;17.09;43.57;101412.31;5076201;28;863;-62
2022/02/26 08:30:23;;;;;;;;;;;;;;;17.40;43.34;101402.41;5075843;28;853;-62
2022/02/26 08:32:50;;;;;;;;;;;;;;;17.16;43.47;101406.63;5076053;28;845;-62
2022/02/26 08:35:15;;;;;;;;;;;;;;;17.31;43.56;101411.41;5076624;28;792;-62
2022/02/26 08:37:41;;;;;;;;;;;;;;;17.28;43.34;101412.78;5076101;28;841;-62
2022/02/26 08:40:07;;;;;;;;;;;;;;;17.22;43.52;101405.56;5108031;28;1020;-65
2022/02/26 08:42:33;;;;;;;;;;;;;;;17.04;43.70;101415.03;5075937;28;805;-65
2022/02/26 08:45:02;;;;;;;;;;;;;;;16.91;44.10;101410.78;5076237;28;1913;-64
2022/02/26 08:47:29;;;;;;;;;;;;;;;16.96;43.96;101408.09;5075473;28;826;-63
2022/02/26 08:49:55;;;;;;;;;;;;;;;16.88;44.09;101403.88;5076220;28;829;-64
2022/02/26 08:52:20;;;;;;;;;;;;;;;16.92;44.39;101426.19;5107926;28;1034;-63
2022/02/26 08:54:45;;;;;;;;;;;;;;;16.97;43.96;101417.16;5075939;28;932;-66
2022/02/26 08:57:11;;;;;;;;;;;;;;;16.94;43.97;101424.00;5076278;28;877;-63
2022/02/26 08:59:36;;;;;;;;;;;;;;;17.06;43.76;101418.34;5076162;28;1544;-62
2022/02/26 09:02:02;;;;;;;;;;;;;;;17.33;43.24;101423.78;5075346;28;886;-62
2022/02/26 09:04:28;;;;;;;;;;;;;;;17.68;42.70;101418.81;5075695;28;1913;-64
2022/02/26 09:06:53;;;;;;;;;;;;;;;17.81;42.20;101414.75;5076050;28;707;-64
2022/02/26 09:09:19;;;;;;;;;;;;;;;17.85;42.09;101407.63;5075854;28;753;-64
2022/02/26 09:11:44;;;;;;;;;;;;;;;18.07;41.52;101410.25;5075996;28;745;-64
2022/02/26 09:14:10;;;;;;;;;;;;;;;18.06;41.34;101417.69;5075830;28;1130;-64
2022/02/26 09:16:35;;;;;;;;;;;;;;;18.20;41.12;101415.28;5075529;28;941;-64
2022/02/26 09:19:01;;;;;;;;;;;;;;;18.28;41.15;101409.22;5075222;28;855;-63
2022/02/26 09:21:26;;;;;;;;;;;;;;;18.35;40.84;101408.97;5076304;28;892;-63
2022/02/26 09:23:52;;;;;;;;;;;;;;;18.51;40.68;101407.13;5075918;28;1918;-64
2022/02/26 09:26:17;;;;;;;;;;;;;;;18.49;40.65;101403.78;5076097;28;890;-64
2022/02/26 09:28:43;;;;;;;;;;;;;;;18.51;40.41;101406.28;5076139;28;936;-63
2022/02/26 09:31:09;;;;;;;;;;;;;;;18.61;40.06;101409.88;5075434;28;977;-64
2022/02/26 09:33:34;;;;;;;;;;;;;;;18.34;40.73;101401.84;5075276;28;965;-64
2022/02/26 09:36:00;;;;;;;;;;;;;;;17.94;41.41;101411.56;5076003;28;947;-63
2022/02/26 09:38:25;;;;;;;;;;;;;;;17.69;41.58;101414.97;5075200;28;785;-63
2022/02/26 09:40:54;;;;;;;;;;;;;;;17.51;41.21;101405.22;5076030;28;794;-64
2022/02/26 09:43:20;;;;;;;;;;;;;;;17.26;40.63;101414.94;5075613;28;1909;-64
2022/02/26 09:45:46;;;;;;;;;;;;;;;16.94;40.58;101415.75;5074817;28;943;-64
2022/02/26 09:48:11;;;;;;;;;;;;;;;17.00;40.74;101417.47;5075766;28;821;-65
2022/02/26 09:50:37;;;;;;;;;;;;;;;17.41;43.66;101423.31;5075737;28;813;-65
2022/02/26 09:53:03;;;;;;;;;;;;;;;18.32;41.24;101414.22;5074856;28;830;-64
2022/02/26 09:55:28;;;;;;;;;;;;;;;17.99;42.19;101422.59;5075369;28;811;-64
2022/02/26 09:57:53;;;;;;;;;;;;;;;17.63;42.53;101422.38;5075631;28;880;-64
2022/02/26 10:00:19;;;;;;;;;;;;;;;17.30;42.90;101418.00;5078773;28;876;-63
2022/02/26 10:02:48;;;;;;;;;;;;;;;17.16;41.78;101417.59;5079257;28;1909;-64
2022/02/26 10:05:14;;;;;;;;;;;;;;;16.90;41.82;101417.34;5079559;28;832;-64
2022/02/26 10:07:41;;;;;;;;;;;;;;;16.86;42.53;101410.72;5078909;28;1124;-64
2022/02/26 10:10:07;;;;;;;;;;;;;;;17.52;43.37;101409.66;5079071;28;856;-64
2022/02/26 10:12:36;;;;;;;;;;;;;;;18.56;40.92;101414.56;5079286;28;884;-64
2022/02/26 10:15:05;;;;;;;;;;;;;;;18.38;40.98;101407.63;5078505;28;920;-64
2022/02/26 10:17:32;;;;;;;;;;;;;;;18.00;41.84;101413.25;5077340;28;812;-63
2022/02/26 10:20:12;;;;;;;;;;;;;;;17.92;41.94;101416.50;5078887;28;1222;-64
2022/02/26 10:22:41;;;;;;;;;;;;;;;17.64;42.40;101409.44;5078285;28;817;-64
2022/02/26 10:25:19;;;;;;;;;;;;;;;17.38;42.95;101412.03;5078423;28;1967;-65
2022/02/26 10:27:47;;;;;;;;;;;;;;;17.21;43.10;101409.41;5078858;28;841;-63
2022/02/26 10:30:14;;;;;;;;;;;;;;;17.15;42.95;101418.69;5078605;28;797;-61
2022/02/26 10:32:41;;;;;;;;;;;;;;;17.27;43.51;101406.41;5078929;28;773;-61
2022/02/26 10:35:07;;;;;;;;;;;;;;;17.34;43.42;101414.44;5077109;28;1238;-62
2022/02/26 10:37:32;;;;;;;;;;;;;;;17.68;42.82;101425.13;5078004;28;771;-62
2022/02/26 10:39:58;;;;;;;;;;;;;;;17.75;42.39;101420.25;5078676;28;896;-63
2022/02/26 10:42:24;;;;;;;;;;;;;;;17.82;42.33;101410.91;5078254;28;934;-64
2022/02/26 10:45:02;;;;;;;;;;;;;;;17.95;41.94;101416.00;5078422;28;2014;-63
2022/02/26 10:47:31;;;;;;;;;;;;;;;17.97;41.66;101408.28;5075613;28;982;-63
2022/02/26 10:49:56;;;;;;;;;;;;;;;18.04;41.84;101402.53;5078068;28;811;-64
2022/02/26 10:52:22;;;;;;;;;;;;;;;18.11;41.52;101408.63;5078335;28;817;-64
2022/02/26 10:54:50;;;;;;;;;;;;;;;18.17;41.42;101412.22;5078083;28;829;-63
2022/02/26 10:57:16;;;;;;;;;;;;;;;18.23;41.38;101408.38;5078303;28;740;-64
2022/02/26 10:59:42;;;;;;;;;;;;;;;18.26;40.98;101399.59;5077862;28;892;-64
2022/02/26 11:02:09;;;;;;;;;;;;;;;18.34;40.79;101404.59;5077892;28;892;-64
2022/02/26 11:04:34;;;;;;;;;;;;;;;18.32;40.94;101401.28;5077928;28;1967;-63
2022/02/26 11:07:00;;;;;;;;;;;;;;;18.32;40.75;101393.00;5077751;28;782;-63
2022/02/26 11:09:25;;;;;;;;;;;;;;;18.43;40.63;101378.16;5077351;28;880;-63
2022/02/26 11:11:51;;;;;;;;;;;;;;;18.41;40.59;101382.28;5078107;28;791;-66
2022/02/26 11:14:20;;;;;;;;;;;;;;;18.30;41.02;101374.00;5077575;28;973;-66
2022/02/26 11:16:47;;;;;;;;;;;;;;;18.29;40.89;101377.84;5077856;28;823;-63
2022/02/26 11:19:13;;;;;;;;;;;;;;;18.29;40.93;101388.06;5110216;28;883;-63
2022/02/26 11:21:39;;;;;;;;;;;;;;;18.30;40.78;101387.78;5109894;28;864;-63
2022/02/26 11:24:04;;;;;;;;;;;;;;;18.26;40.94;101383.09;5077196;28;1957;-62
2022/02/26 11:26:30;;;;;;;;;;;;;;;18.35;40.71;101381.44;5077756;28;722;-63
2022/02/26 11:28:56;;;;;;;;;;;;;;;18.37;40.54;101387.53;5109486;28;868;-64
2022/02/26 11:31:24;;;;;;;;;;;;;;;18.34;40.71;101395.50;5109123;28;1103;-63
2022/02/26 11:33:49;;;;;;;;;;;;;;;18.19;41.31;101396.25;5110421;28;781;-63
2022/02/26 11:36:15;;;;;;;;;;;;;;;18.26;41.03;101394.09;5109427;28;971;-62
2022/02/26 11:38:43;;;;;;;;;;;;;;;18.30;40.74;101389.72;5077022;28;825;-64
2022/02/26 11:41:15;;;;;;;;;;;;;;;18.32;40.93;101393.00;5077198;28;830;-64
2022/02/26 11:43:40;;;;;;;;;;;;;;;18.27;40.88;101391.06;5109197;28;1905;-63
2022/02/26 11:46:21;;;;;;;;;;;;;;;18.27;40.71;101390.22;5076919;28;820;-64
2022/02/26 11:48:47;;;;;;;;;;;;;;;18.25;41.05;101389.69;5077028;28;781;-63
2022/02/26 11:51:14;;;;;;;;;;;;;;;18.22;40.82;101392.97;5076814;28;853;-62
2022/02/26 11:53:43;;;;;;;;;;;;;;;18.30;40.61;101386.97;5076753;28;806;-62
2022/02/26 11:56:09;;;;;;;;;;;;;;;18.35;40.90;101389.72;5077208;28;828;-63
2022/02/26 11:58:35;;;;;;;;;;;;;;;18.29;40.92;101388.06;5109136;28;1117;-63
2022/02/26 12:01:01;;;;;;;;;;;;;;;18.35;40.69;101384.19;5108766;28;897;-63
2022/02/26 12:03:27;;;;;;;;;;;;;;;18.30;40.99;101385.03;5076672;28;1898;-63
2022/02/26 12:05:54;;;;;;;;;;;;;;;18.39;40.62;101388.06;5076844;28;933;-63
2022/02/26 12:08:22;;;;;;;;;;;;;;;18.41;40.41;101390.56;5076544;28;880;-62
2022/02/26 12:10:54;;;;;;;;;;;;;;;18.44;40.30;101395.53;5076994;28;836;-63
2022/02/26 12:13:29;;;;;;;;;;;;;;;18.50;40.56;101388.94;5076476;28;1009;-65
2022/02/26 12:16:13;;;;;;;;;;;;;;;18.37;40.44;101394.94;5076010;28;857;-64
2022/02/26 12:18:40;;;;;;;;;;;;;;;18.26;40.88;101388.59;5071102;28;909;-63
2022/02/26 12:21:07;;;;;;;;;;;;;;;18.15;41.02;101395.16;5075179;28;792;-64
2022/02/26 12:23:33;;;;;;;;;;;;;;;17.92;41.63;101391.75;5076618;28;1898;-64
2022/02/26 12:26:05;;;;;;;;;;;;;;;17.87;41.45;101386.19;5076860;28;1118;-63
2022/02/26 12:28:31;;;;;;;;;;;;;;;17.77;41.95;101387.78;5075808;28;737;-63
2022/02/26 12:31:00;;;;;;;;;;;;;;;17.56;42.05;101380.53;5076178;28;941;-63
2022/02/26 12:33:26;;;;;;;;;;;;;;;17.58;41.79;101390.13;5076446;28;758;-63
2022/02/26 12:35:51;;;;;;;;;;;;;;;17.45;41.92;101391.44;5075951;28;804;-63
2022/02/26 12:38:21;;;;;;;;;;;;;;;17.28;42.40;101396.28;5108825;28;1337;-63
2022/02/26 12:40:46;;;;;;;;;;;;;;;17.13;42.46;101387.91;5076346;28;948;-62
2022/02/26 12:43:11;;;;;;;;;;;;;;;17.22;42.27;101386.31;5075624;28;1968;-63
2022/02/26 12:45:44;;;;;;;;;;;;;;;17.36;42.67;101393.03;5075821;28;884;-63
2022/02/26 12:48:09;;;;;;;;;;;;;;;17.45;42.41;101396.94;5070605;28;853;-63
2022/02/26 12:50:35;;;;;;;;;;;;;;;17.65;42.20;101400.91;5075982;28;861;-63